sensor_id;sensor_type;location;lat;lon;timestamp;P1;durP1;ratioP1;P2;durP2;ratioP2
16757;SDS011;8497;51.346;12.396;2024-02-28T00:02:25;30.07;;;15.47;;
16757;SDS011;8497;51.346;12.396;2024-02-28T00:04:56;31.07;;;15.13;;
16757;SDS011;8497;51.346;12.396;2024-02-28T00:07:49;32.93;;;16.00;;
16757;SDS011;8497;51.346;12.396;2024-02-28T00:10:19;32.30;;;15.40;;
16757;SDS011;8497;51.346;12.396;2024-02-28T00:12:49;30.63;;;14.17;;
16757;SDS011;8497;51.346;12.396;2024-02-28T00:15:18;29.70;;;15.33;;
16757;SDS011;8497;51.346;12.396;2024-02-28T00:17:55;27.37;;;14.23;;
16757;SDS011;8497;51.346;12.396;2024-02-28T00:20:25;30.93;;;16.07;;
16757;SDS011;8497;51.346;12.396;2024-02-28T00:22:56;30.90;;;15.10;;
16757;SDS011;8497;51.346;12.396;2024-02-28T00:25:24;28.20;;;14.33;;
16757;SDS011;8497;51.346;12.396;2024-02-28T00:27:54;30.07;;;14.53;;
16757;SDS011;8497;51.346;12.396;2024-02-28T00:30:23;24.63;;;13.40;;
16757;SDS011;8497;51.346;12.396;2024-02-28T00:32:52;32.00;;;13.40;;
16757;SDS011;8497;51.346;12.396;2024-02-28T00:35:21;25.70;;;13.73;;
16757;SDS011;8497;51.346;12.396;2024-02-28T00:37:49;30.47;;;14.83;;
16757;SDS011;8497;51.346;12.396;2024-02-28T00:40:18;28.03;;;14.20;;
16757;SDS011;8497;51.346;12.396;2024-02-28T00:42:46;28.23;;;14.37;;
16757;SDS011;8497;51.346;12.396;2024-02-28T00:45:17;30.40;;;13.73;;
16757;SDS011;8497;51.346;12.396;2024-02-28T00:47:45;22.77;;;12.80;;
16757;SDS011;8497;51.346;12.396;2024-02-28T00:50:14;26.67;;;13.63;;
16757;SDS011;8497;51.346;12.396;2024-02-28T00:52:43;24.83;;;12.93;;
16757;SDS011;8497;51.346;12.396;2024-02-28T00:55:18;25.97;;;11.70;;
16757;SDS011;8497;51.346;12.396;2024-02-28T00:57:58;24.10;;;13.17;;
16757;SDS011;8497;51.346;12.396;2024-02-28T01:00:30;25.03;;;12.13;;
16757;SDS011;8497;51.346;12.396;2024-02-28T01:02:59;19.33;;;11.07;;
16757;SDS011;8497;51.346;12.396;2024-02-28T01:05:30;21.63;;;12.23;;
16757;SDS011;8497;51.346;12.396;2024-02-28T01:07:59;19.97;;;11.10;;
16757;SDS011;8497;51.346;12.396;2024-02-28T01:10:28;24.93;;;12.67;;
16757;SDS011;8497;51.346;12.396;2024-02-28T01:12:56;21.17;;;12.07;;
16757;SDS011;8497;51.346;12.396;2024-02-28T01:15:25;21.13;;;12.17;;
16757;SDS011;8497;51.346;12.396;2024-02-28T01:17:56;24.03;;;12.27;;
16757;SDS011;8497;51.346;12.396;2024-02-28T01:20:25;21.70;;;12.37;;
16757;SDS011;8497;51.346;12.396;2024-02-28T01:22:54;19.30;;;12.00;;
16757;SDS011;8497;51.346;12.396;2024-02-28T01:25:22;21.40;;;12.77;;
16757;SDS011;8497;51.346;12.396;2024-02-28T01:27:51;25.43;;;13.43;;
16757;SDS011;8497;51.346;12.396;2024-02-28T01:30:20;28.40;;;13.77;;
16757;SDS011;8497;51.346;12.396;2024-02-28T01:32:50;24.00;;;13.43;;
16757;SDS011;8497;51.346;12.396;2024-02-28T01:35:19;23.50;;;14.17;;
16757;SDS011;8497;51.346;12.396;2024-02-28T01:37:48;24.73;;;13.33;;
16757;SDS011;8497;51.346;12.396;2024-02-28T01:40:17;28.37;;;13.80;;
16757;SDS011;8497;51.346;12.396;2024-02-28T01:42:46;25.57;;;13.90;;
16757;SDS011;8497;51.346;12.396;2024-02-28T01:45:14;25.63;;;13.80;;
16757;SDS011;8497;51.346;12.396;2024-02-28T01:47:43;23.10;;;13.33;;
16757;SDS011;8497;51.346;12.396;2024-02-28T01:50:13;23.60;;;13.53;;
16757;SDS011;8497;51.346;12.396;2024-02-28T01:52:42;21.27;;;11.87;;
16757;SDS011;8497;51.346;12.396;2024-02-28T01:55:11;20.37;;;11.30;;
16757;SDS011;8497;51.346;12.396;2024-02-28T01:57:44;21.70;;;11.43;;
16757;SDS011;8497;51.346;12.396;2024-02-28T02:00:13;20.63;;;12.53;;
16757;SDS011;8497;51.346;12.396;2024-02-28T02:02:46;20.17;;;11.43;;
16757;SDS011;8497;51.346;12.396;2024-02-28T02:05:16;24.97;;;12.73;;
16757;SDS011;8497;51.346;12.396;2024-02-28T02:07:47;19.87;;;12.13;;
16757;SDS011;8497;51.346;12.396;2024-02-28T02:10:17;21.13;;;12.67;;
16757;SDS011;8497;51.346;12.396;2024-02-28T02:12:45;25.60;;;13.80;;
16757;SDS011;8497;51.346;12.396;2024-02-28T02:15:14;24.37;;;13.60;;
16757;SDS011;8497;51.346;12.396;2024-02-28T02:17:43;25.60;;;14.17;;
16757;SDS011;8497;51.346;12.396;2024-02-28T02:20:11;27.70;;;15.13;;
16757;SDS011;8497;51.346;12.396;2024-02-28T02:22:44;26.23;;;14.67;;
16757;SDS011;8497;51.346;12.396;2024-02-28T02:25:13;28.23;;;15.53;;
16757;SDS011;8497;51.346;12.396;2024-02-28T02:27:42;28.70;;;16.50;;
16757;SDS011;8497;51.346;12.396;2024-02-28T02:30:13;33.33;;;16.63;;
16757;SDS011;8497;51.346;12.396;2024-02-28T02:32:41;32.20;;;16.60;;
16757;SDS011;8497;51.346;12.396;2024-02-28T02:35:10;29.43;;;15.97;;
16757;SDS011;8497;51.346;12.396;2024-02-28T02:37:44;28.10;;;15.53;;
16757;SDS011;8497;51.346;12.396;2024-02-28T02:40:15;31.33;;;17.40;;
16757;SDS011;8497;51.346;12.396;2024-02-28T02:42:45;31.63;;;16.30;;
16757;SDS011;8497;51.346;12.396;2024-02-28T02:45:14;29.53;;;16.80;;
16757;SDS011;8497;51.346;12.396;2024-02-28T02:47:43;32.80;;;16.67;;
16757;SDS011;8497;51.346;12.396;2024-02-28T02:50:12;32.20;;;16.90;;
16757;SDS011;8497;51.346;12.396;2024-02-28T02:52:41;28.63;;;15.10;;
16757;SDS011;8497;51.346;12.396;2024-02-28T02:55:11;34.23;;;16.00;;
16757;SDS011;8497;51.346;12.396;2024-02-28T02:57:41;30.53;;;16.57;;
16757;SDS011;8497;51.346;12.396;2024-02-28T03:00:19;26.40;;;14.57;;
16757;SDS011;8497;51.346;12.396;2024-02-28T03:02:48;27.73;;;15.60;;
16757;SDS011;8497;51.346;12.396;2024-02-28T03:05:21;30.87;;;15.50;;
16757;SDS011;8497;51.346;12.396;2024-02-28T03:07:50;30.57;;;15.50;;
16757;SDS011;8497;51.346;12.396;2024-02-28T03:10:22;31.30;;;17.10;;
16757;SDS011;8497;51.346;12.396;2024-02-28T03:12:51;29.43;;;15.87;;
16757;SDS011;8497;51.346;12.396;2024-02-28T03:15:19;31.93;;;16.93;;
16757;SDS011;8497;51.346;12.396;2024-02-28T03:17:48;28.43;;;16.47;;
16757;SDS011;8497;51.346;12.396;2024-02-28T03:20:21;28.67;;;16.57;;
16757;SDS011;8497;51.346;12.396;2024-02-28T03:22:50;31.40;;;16.07;;
16757;SDS011;8497;51.346;12.396;2024-02-28T03:25:20;33.60;;;17.97;;
16757;SDS011;8497;51.346;12.396;2024-02-28T03:27:48;31.67;;;16.30;;
16757;SDS011;8497;51.346;12.396;2024-02-28T03:30:17;32.20;;;17.57;;
16757;SDS011;8497;51.346;12.396;2024-02-28T03:32:46;29.27;;;16.53;;
16757;SDS011;8497;51.346;12.396;2024-02-28T03:35:15;30.33;;;15.90;;
16757;SDS011;8497;51.346;12.396;2024-02-28T03:37:43;28.83;;;15.83;;
16757;SDS011;8497;51.346;12.396;2024-02-28T03:40:12;28.40;;;15.97;;
16757;SDS011;8497;51.346;12.396;2024-02-28T03:42:42;27.43;;;15.87;;
16757;SDS011;8497;51.346;12.396;2024-02-28T03:45:13;29.27;;;16.97;;
16757;SDS011;8497;51.346;12.396;2024-02-28T03:47:42;31.27;;;16.37;;
16757;SDS011;8497;51.346;12.396;2024-02-28T03:50:11;29.40;;;17.27;;
16757;SDS011;8497;51.346;12.396;2024-02-28T03:52:40;36.27;;;20.33;;
16757;SDS011;8497;51.346;12.396;2024-02-28T03:55:19;34.20;;;19.00;;
16757;SDS011;8497;51.346;12.396;2024-02-28T03:57:53;35.17;;;18.43;;
16757;SDS011;8497;51.346;12.396;2024-02-28T04:00:22;35.40;;;17.60;;
16757;SDS011;8497;51.346;12.396;2024-02-28T04:02:54;29.30;;;16.63;;
16757;SDS011;8497;51.346;12.396;2024-02-28T04:05:32;28.23;;;17.23;;
16757;SDS011;8497;51.346;12.396;2024-02-28T04:08:10;31.50;;;17.00;;
16757;SDS011;8497;51.346;12.396;2024-02-28T04:10:43;31.43;;;16.47;;
16757;SDS011;8497;51.346;12.396;2024-02-28T04:13:22;29.03;;;16.40;;
16757;SDS011;8497;51.346;12.396;2024-02-28T04:16:09;29.57;;;17.30;;
16757;SDS011;8497;51.346;12.396;2024-02-28T04:18:46;30.47;;;16.77;;
16757;SDS011;8497;51.346;12.396;2024-02-28T04:21:16;29.10;;;15.87;;
16757;SDS011;8497;51.346;12.396;2024-02-28T04:23:45;27.70;;;16.30;;
16757;SDS011;8497;51.346;12.396;2024-02-28T04:26:13;29.60;;;16.03;;
16757;SDS011;8497;51.346;12.396;2024-02-28T04:28:43;28.83;;;16.73;;
16757;SDS011;8497;51.346;12.396;2024-02-28T04:31:12;31.00;;;16.67;;
16757;SDS011;8497;51.346;12.396;2024-02-28T04:33:40;29.40;;;15.90;;
16757;SDS011;8497;51.346;12.396;2024-02-28T04:36:09;28.63;;;15.67;;
16757;SDS011;8497;51.346;12.396;2024-02-28T04:38:37;32.00;;;17.47;;
16757;SDS011;8497;51.346;12.396;2024-02-28T04:41:06;29.20;;;16.50;;
16757;SDS011;8497;51.346;12.396;2024-02-28T04:43:34;30.03;;;16.80;;
16757;SDS011;8497;51.346;12.396;2024-02-28T04:46:04;33.20;;;17.13;;
16757;SDS011;8497;51.346;12.396;2024-02-28T04:48:33;34.23;;;18.77;;
16757;SDS011;8497;51.346;12.396;2024-02-28T04:51:02;30.23;;;17.70;;
16757;SDS011;8497;51.346;12.396;2024-02-28T04:53:32;30.83;;;17.53;;
16757;SDS011;8497;51.346;12.396;2024-02-28T04:56:03;34.63;;;19.53;;
16757;SDS011;8497;51.346;12.396;2024-02-28T04:58:32;31.70;;;18.90;;
16757;SDS011;8497;51.346;12.396;2024-02-28T05:01:01;35.57;;;19.07;;
16757;SDS011;8497;51.346;12.396;2024-02-28T05:03:31;33.17;;;18.30;;
16757;SDS011;8497;51.346;12.396;2024-02-28T05:06:00;35.00;;;20.30;;
16757;SDS011;8497;51.346;12.396;2024-02-28T05:08:29;36.00;;;20.73;;
16757;SDS011;8497;51.346;12.396;2024-02-28T05:10:58;34.60;;;19.33;;
16757;SDS011;8497;51.346;12.396;2024-02-28T05:13:28;33.17;;;19.50;;
16757;SDS011;8497;51.346;12.396;2024-02-28T05:16:02;35.07;;;18.83;;
16757;SDS011;8497;51.346;12.396;2024-02-28T05:18:32;34.97;;;19.17;;
16757;SDS011;8497;51.346;12.396;2024-02-28T05:21:01;33.93;;;19.40;;
16757;SDS011;8497;51.346;12.396;2024-02-28T05:23:43;30.00;;;18.33;;
16757;SDS011;8497;51.346;12.396;2024-02-28T05:26:13;31.73;;;18.50;;
16757;SDS011;8497;51.346;12.396;2024-02-28T05:28:42;33.43;;;19.23;;
16757;SDS011;8497;51.346;12.396;2024-02-28T05:31:21;32.77;;;18.47;;
16757;SDS011;8497;51.346;12.396;2024-02-28T05:33:52;31.23;;;16.83;;
16757;SDS011;8497;51.346;12.396;2024-02-28T05:36:23;29.00;;;17.20;;
16757;SDS011;8497;51.346;12.396;2024-02-28T05:38:54;29.40;;;18.10;;
16757;SDS011;8497;51.346;12.396;2024-02-28T05:41:24;30.37;;;17.80;;
16757;SDS011;8497;51.346;12.396;2024-02-28T05:43:53;28.27;;;16.40;;
16757;SDS011;8497;51.346;12.396;2024-02-28T05:46:21;29.53;;;16.53;;
16757;SDS011;8497;51.346;12.396;2024-02-28T05:48:52;32.57;;;17.60;;
16757;SDS011;8497;51.346;12.396;2024-02-28T05:51:24;30.70;;;17.33;;
16757;SDS011;8497;51.346;12.396;2024-02-28T05:53:52;26.53;;;16.97;;
16757;SDS011;8497;51.346;12.396;2024-02-28T05:56:24;25.17;;;15.63;;
16757;SDS011;8497;51.346;12.396;2024-02-28T05:58:54;24.90;;;15.83;;
16757;SDS011;8497;51.346;12.396;2024-02-28T06:01:26;26.67;;;16.03;;
16757;SDS011;8497;51.346;12.396;2024-02-28T06:07:31;24.87;;;15.87;;
16757;SDS011;8497;51.346;12.396;2024-02-28T06:10:01;27.80;;;16.27;;
16757;SDS011;8497;51.346;12.396;2024-02-28T06:12:41;26.40;;;16.47;;
16757;SDS011;8497;51.346;12.396;2024-02-28T06:15:12;29.40;;;16.00;;
16757;SDS011;8497;51.346;12.396;2024-02-28T06:17:51;23.97;;;14.10;;
16757;SDS011;8497;51.346;12.396;2024-02-28T06:20:26;26.73;;;15.83;;
16757;SDS011;8497;51.346;12.396;2024-02-28T06:22:55;28.93;;;15.83;;
16757;SDS011;8497;51.346;12.396;2024-02-28T06:25:25;27.23;;;14.93;;
16757;SDS011;8497;51.346;12.396;2024-02-28T06:27:54;27.40;;;15.90;;
16757;SDS011;8497;51.346;12.396;2024-02-28T06:30:25;28.43;;;17.00;;
16757;SDS011;8497;51.346;12.396;2024-02-28T06:32:54;27.83;;;16.83;;
16757;SDS011;8497;51.346;12.396;2024-02-28T06:35:22;25.97;;;15.47;;
16757;SDS011;8497;51.346;12.396;2024-02-28T06:37:52;24.73;;;15.57;;
16757;SDS011;8497;51.346;12.396;2024-02-28T06:40:21;28.80;;;16.63;;
16757;SDS011;8497;51.346;12.396;2024-02-28T06:42:50;27.73;;;16.63;;
16757;SDS011;8497;51.346;12.396;2024-02-28T06:45:21;28.67;;;16.50;;
16757;SDS011;8497;51.346;12.396;2024-02-28T06:47:49;25.70;;;16.37;;
16757;SDS011;8497;51.346;12.396;2024-02-28T06:50:18;33.27;;;16.43;;
16757;SDS011;8497;51.346;12.396;2024-02-28T06:52:47;24.97;;;15.73;;
16757;SDS011;8497;51.346;12.396;2024-02-28T06:55:17;29.57;;;15.47;;
16757;SDS011;8497;51.346;12.396;2024-02-28T06:57:51;25.77;;;15.10;;
16757;SDS011;8497;51.346;12.396;2024-02-28T07:00:20;28.53;;;15.63;;
16757;SDS011;8497;51.346;12.396;2024-02-28T07:02:49;27.80;;;16.90;;
16757;SDS011;8497;51.346;12.396;2024-02-28T07:05:18;31.47;;;16.77;;
16757;SDS011;8497;51.346;12.396;2024-02-28T07:07:49;29.07;;;15.80;;
16757;SDS011;8497;51.346;12.396;2024-02-28T07:10:19;27.77;;;15.53;;
16757;SDS011;8497;51.346;12.396;2024-02-28T07:12:48;26.00;;;15.83;;
16757;SDS011;8497;51.346;12.396;2024-02-28T07:15:16;24.00;;;15.50;;
16757;SDS011;8497;51.346;12.396;2024-02-28T07:17:48;31.27;;;15.87;;
16757;SDS011;8497;51.346;12.396;2024-02-28T07:20:16;30.37;;;16.60;;
16757;SDS011;8497;51.346;12.396;2024-02-28T07:22:45;24.73;;;15.37;;
16757;SDS011;8497;51.346;12.396;2024-02-28T07:25:14;25.30;;;14.67;;
16757;SDS011;8497;51.346;12.396;2024-02-28T07:27:49;24.53;;;14.87;;
16757;SDS011;8497;51.346;12.396;2024-02-28T07:30:17;29.50;;;16.93;;
16757;SDS011;8497;51.346;12.396;2024-02-28T07:32:46;24.80;;;14.60;;
16757;SDS011;8497;51.346;12.396;2024-02-28T07:35:19;26.37;;;15.30;;
16757;SDS011;8497;51.346;12.396;2024-02-28T07:37:50;24.80;;;15.53;;
16757;SDS011;8497;51.346;12.396;2024-02-28T07:40:19;38.37;;;20.27;;
16757;SDS011;8497;51.346;12.396;2024-02-28T07:42:48;31.50;;;18.47;;
16757;SDS011;8497;51.346;12.396;2024-02-28T07:45:18;29.13;;;17.73;;
16757;SDS011;8497;51.346;12.396;2024-02-28T07:47:48;33.97;;;19.17;;
16757;SDS011;8497;51.346;12.396;2024-02-28T07:50:17;35.80;;;21.47;;
16757;SDS011;8497;51.346;12.396;2024-02-28T07:52:46;38.67;;;22.50;;
16757;SDS011;8497;51.346;12.396;2024-02-28T07:55:14;41.57;;;24.63;;
16757;SDS011;8497;51.346;12.396;2024-02-28T07:57:44;43.73;;;25.10;;
16757;SDS011;8497;51.346;12.396;2024-02-28T08:00:15;41.67;;;23.90;;
16757;SDS011;8497;51.346;12.396;2024-02-28T08:02:45;46.97;;;25.87;;
16757;SDS011;8497;51.346;12.396;2024-02-28T08:05:16;42.90;;;24.47;;
16757;SDS011;8497;51.346;12.396;2024-02-28T08:07:46;46.33;;;25.80;;
16757;SDS011;8497;51.346;12.396;2024-02-28T08:10:14;46.63;;;25.23;;
16757;SDS011;8497;51.346;12.396;2024-02-28T08:12:43;43.43;;;24.23;;
16757;SDS011;8497;51.346;12.396;2024-02-28T08:15:12;49.07;;;25.90;;
16757;SDS011;8497;51.346;12.396;2024-02-28T08:17:42;46.17;;;25.13;;
16757;SDS011;8497;51.346;12.396;2024-02-28T08:20:11;43.97;;;25.33;;
16757;SDS011;8497;51.346;12.396;2024-02-28T08:22:50;43.67;;;24.30;;
16757;SDS011;8497;51.346;12.396;2024-02-28T08:25:45;40.03;;;23.13;;
16757;SDS011;8497;51.346;12.396;2024-02-28T08:28:24;38.80;;;23.37;;
16757;SDS011;8497;51.346;12.396;2024-02-28T08:33:50;42.20;;;24.03;;
16757;SDS011;8497;51.346;12.396;2024-02-28T08:36:44;39.50;;;22.87;;
16757;SDS011;8497;51.346;12.396;2024-02-28T08:39:25;39.93;;;23.37;;
16757;SDS011;8497;51.346;12.396;2024-02-28T08:41:53;38.53;;;22.23;;
16757;SDS011;8497;51.346;12.396;2024-02-28T08:44:22;41.10;;;23.13;;
16757;SDS011;8497;51.346;12.396;2024-02-28T08:46:52;37.87;;;22.43;;
16757;SDS011;8497;51.346;12.396;2024-02-28T08:49:20;35.60;;;21.90;;
16757;SDS011;8497;51.346;12.396;2024-02-28T08:51:59;36.83;;;22.20;;
16757;SDS011;8497;51.346;12.396;2024-02-28T08:54:32;38.27;;;22.93;;
16757;SDS011;8497;51.346;12.396;2024-02-28T08:57:00;38.00;;;22.77;;
16757;SDS011;8497;51.346;12.396;2024-02-28T08:59:30;37.13;;;21.67;;
16757;SDS011;8497;51.346;12.396;2024-02-28T09:02:05;33.33;;;21.60;;
16757;SDS011;8497;51.346;12.396;2024-02-28T09:04:42;38.47;;;23.33;;
16757;SDS011;8497;51.346;12.396;2024-02-28T09:07:10;37.03;;;22.10;;
16757;SDS011;8497;51.346;12.396;2024-02-28T09:09:45;38.53;;;23.17;;
16757;SDS011;8497;51.346;12.396;2024-02-28T09:12:27;37.83;;;23.43;;
16757;SDS011;8497;51.346;12.396;2024-02-28T09:14:55;35.90;;;23.80;;
16757;SDS011;8497;51.346;12.396;2024-02-28T09:17:26;36.30;;;23.83;;
16757;SDS011;8497;51.346;12.396;2024-02-28T09:19:55;40.23;;;23.10;;
16757;SDS011;8497;51.346;12.396;2024-02-28T09:22:23;35.87;;;21.60;;
16757;SDS011;8497;51.346;12.396;2024-02-28T09:24:52;37.30;;;23.07;;
16757;SDS011;8497;51.346;12.396;2024-02-28T09:27:21;36.27;;;22.23;;
16757;SDS011;8497;51.346;12.396;2024-02-28T09:29:50;35.57;;;22.23;;
16757;SDS011;8497;51.346;12.396;2024-02-28T09:32:19;31.40;;;20.53;;
16757;SDS011;8497;51.346;12.396;2024-02-28T09:34:49;34.27;;;21.37;;
16757;SDS011;8497;51.346;12.396;2024-02-28T09:37:18;34.43;;;21.93;;
16757;SDS011;8497;51.346;12.396;2024-02-28T09:39:55;35.43;;;20.80;;
16757;SDS011;8497;51.346;12.396;2024-02-28T09:42:24;31.47;;;19.23;;
16757;SDS011;8497;51.346;12.396;2024-02-28T09:45:00;27.67;;;17.77;;
16757;SDS011;8497;51.346;12.396;2024-02-28T09:48:02;27.70;;;16.80;;
16757;SDS011;8497;51.346;12.396;2024-02-28T09:50:34;28.77;;;16.70;;
16757;SDS011;8497;51.346;12.396;2024-02-28T09:53:05;28.10;;;17.73;;
16757;SDS011;8497;51.346;12.396;2024-02-28T09:55:36;31.93;;;18.67;;
16757;SDS011;8497;51.346;12.396;2024-02-28T09:58:07;34.43;;;22.00;;
16757;SDS011;8497;51.346;12.396;2024-02-28T10:00:37;36.70;;;21.80;;
16757;SDS011;8497;51.346;12.396;2024-02-28T10:03:11;31.97;;;21.00;;
16757;SDS011;8497;51.346;12.396;2024-02-28T10:05:47;33.20;;;21.57;;
16757;SDS011;8497;51.346;12.396;2024-02-28T10:08:15;32.90;;;21.03;;
16757;SDS011;8497;51.346;12.396;2024-02-28T10:10:44;35.13;;;22.23;;
16757;SDS011;8497;51.346;12.396;2024-02-28T10:13:15;36.77;;;23.33;;
16757;SDS011;8497;51.346;12.396;2024-02-28T10:15:44;38.07;;;21.93;;
16757;SDS011;8497;51.346;12.396;2024-02-28T10:18:13;33.20;;;20.93;;
16757;SDS011;8497;51.346;12.396;2024-02-28T10:20:43;32.13;;;20.80;;
16757;SDS011;8497;51.346;12.396;2024-02-28T10:23:13;31.83;;;20.07;;
16757;SDS011;8497;51.346;12.396;2024-02-28T10:25:42;33.10;;;20.67;;
16757;SDS011;8497;51.346;12.396;2024-02-28T10:28:23;30.23;;;20.37;;
16757;SDS011;8497;51.346;12.396;2024-02-28T10:30:51;33.80;;;21.40;;
16757;SDS011;8497;51.346;12.396;2024-02-28T10:33:26;30.97;;;19.57;;
16757;SDS011;8497;51.346;12.396;2024-02-28T10:36:00;30.03;;;19.53;;
16757;SDS011;8497;51.346;12.396;2024-02-28T10:38:32;32.70;;;21.73;;
16757;SDS011;8497;51.346;12.396;2024-02-28T10:41:02;32.47;;;21.10;;
16757;SDS011;8497;51.346;12.396;2024-02-28T10:43:33;33.43;;;21.23;;
16757;SDS011;8497;51.346;12.396;2024-02-28T10:46:01;32.70;;;20.63;;
16757;SDS011;8497;51.346;12.396;2024-02-28T10:48:54;32.60;;;21.17;;
16757;SDS011;8497;51.346;12.396;2024-02-28T10:51:26;36.43;;;21.40;;
16757;SDS011;8497;51.346;12.396;2024-02-28T10:54:07;32.90;;;20.43;;
16757;SDS011;8497;51.346;12.396;2024-02-28T10:56:42;32.07;;;20.53;;
16757;SDS011;8497;51.346;12.396;2024-02-28T10:59:13;29.83;;;19.37;;
16757;SDS011;8497;51.346;12.396;2024-02-28T11:01:42;27.60;;;18.67;;
16757;SDS011;8497;51.346;12.396;2024-02-28T11:04:15;33.70;;;21.47;;
16757;SDS011;8497;51.346;12.396;2024-02-28T11:06:48;29.63;;;18.80;;
16757;SDS011;8497;51.346;12.396;2024-02-28T11:09:21;31.87;;;19.87;;
16757;SDS011;8497;51.346;12.396;2024-02-28T11:11:52;29.80;;;19.47;;
16757;SDS011;8497;51.346;12.396;2024-02-28T11:14:25;30.83;;;19.80;;
16757;SDS011;8497;51.346;12.396;2024-02-28T11:17:00;31.37;;;18.73;;
16757;SDS011;8497;51.346;12.396;2024-02-28T11:19:33;29.53;;;17.77;;
16757;SDS011;8497;51.346;12.396;2024-02-28T11:22:05;28.80;;;17.47;;
16757;SDS011;8497;51.346;12.396;2024-02-28T11:24:35;30.27;;;18.57;;
16757;SDS011;8497;51.346;12.396;2024-02-28T11:27:04;27.40;;;17.60;;
16757;SDS011;8497;51.346;12.396;2024-02-28T11:29:33;25.83;;;17.23;;
16757;SDS011;8497;51.346;12.396;2024-02-28T11:32:02;25.17;;;16.70;;
16757;SDS011;8497;51.346;12.396;2024-02-28T11:34:33;25.83;;;17.00;;
16757;SDS011;8497;51.346;12.396;2024-02-28T11:37:02;25.70;;;15.87;;
16757;SDS011;8497;51.346;12.396;2024-02-28T11:39:38;27.07;;;16.60;;
16757;SDS011;8497;51.346;12.396;2024-02-28T11:42:25;24.57;;;16.43;;
16757;SDS011;8497;51.346;12.396;2024-02-28T11:45:13;24.03;;;16.10;;
16757;SDS011;8497;51.346;12.396;2024-02-28T11:48:06;26.70;;;16.47;;
16757;SDS011;8497;51.346;12.396;2024-02-28T11:50:55;23.33;;;14.57;;
16757;SDS011;8497;51.346;12.396;2024-02-28T11:55:09;22.67;;;15.50;;
16757;SDS011;8497;51.346;12.396;2024-02-28T11:56:36;26.50;;;15.17;;
16757;SDS011;8497;51.346;12.396;2024-02-28T11:59:28;24.73;;;16.33;;
16757;SDS011;8497;51.346;12.396;2024-02-28T12:02:11;22.87;;;14.57;;
16757;SDS011;8497;51.346;12.396;2024-02-28T12:04:50;23.27;;;15.23;;
16757;SDS011;8497;51.346;12.396;2024-02-28T12:07:35;23.43;;;15.50;;
16757;SDS011;8497;51.346;12.396;2024-02-28T12:10:22;23.80;;;14.27;;
16757;SDS011;8497;51.346;12.396;2024-02-28T12:13:07;22.00;;;14.73;;
16757;SDS011;8497;51.346;12.396;2024-02-28T12:15:58;22.57;;;15.27;;
16757;SDS011;8497;51.346;12.396;2024-02-28T12:19:16;20.67;;;13.83;;
16757;SDS011;8497;51.346;12.396;2024-02-28T12:22:02;18.97;;;12.90;;
16757;SDS011;8497;51.346;12.396;2024-02-28T12:24:49;21.83;;;12.73;;
16757;SDS011;8497;51.346;12.396;2024-02-28T12:27:35;18.30;;;12.57;;
16757;SDS011;8497;51.346;12.396;2024-02-28T12:30:38;19.53;;;13.33;;
16757;SDS011;8497;51.346;12.396;2024-02-28T12:33:15;18.10;;;12.90;;
16757;SDS011;8497;51.346;12.396;2024-02-28T12:35:54;17.60;;;13.07;;
16757;SDS011;8497;51.346;12.396;2024-02-28T12:38:40;20.43;;;12.70;;
16757;SDS011;8497;51.346;12.396;2024-02-28T12:41:10;18.53;;;12.90;;
16757;SDS011;8497;51.346;12.396;2024-02-28T12:43:41;17.60;;;12.00;;
16757;SDS011;8497;51.346;12.396;2024-02-28T12:46:11;17.80;;;12.63;;
16757;SDS011;8497;51.346;12.396;2024-02-28T12:48:40;17.43;;;12.97;;
16757;SDS011;8497;51.346;12.396;2024-02-28T12:51:11;17.83;;;12.47;;
16757;SDS011;8497;51.346;12.396;2024-02-28T12:54:03;19.23;;;13.27;;
16757;SDS011;8497;51.346;12.396;2024-02-28T12:56:32;17.87;;;12.80;;
16757;SDS011;8497;51.346;12.396;2024-02-28T12:59:03;19.37;;;13.87;;
16757;SDS011;8497;51.346;12.396;2024-02-28T13:01:35;21.63;;;13.03;;
16757;SDS011;8497;51.346;12.396;2024-02-28T13:04:05;17.27;;;12.27;;
16757;SDS011;8497;51.346;12.396;2024-02-28T13:06:35;20.40;;;12.60;;
16757;SDS011;8497;51.346;12.396;2024-02-28T13:09:04;20.87;;;12.60;;
16757;SDS011;8497;51.346;12.396;2024-02-28T13:11:38;19.57;;;11.97;;
16757;SDS011;8497;51.346;12.396;2024-02-28T13:14:08;17.60;;;12.33;;
16757;SDS011;8497;51.346;12.396;2024-02-28T13:16:42;17.43;;;11.90;;
16757;SDS011;8497;51.346;12.396;2024-02-28T13:19:11;19.40;;;12.40;;
16757;SDS011;8497;51.346;12.396;2024-02-28T13:21:40;16.30;;;12.47;;
16757;SDS011;8497;51.346;12.396;2024-02-28T13:24:10;16.20;;;11.87;;
16757;SDS011;8497;51.346;12.396;2024-02-28T13:26:43;17.07;;;11.83;;
16757;SDS011;8497;51.346;12.396;2024-02-28T13:29:23;17.33;;;11.90;;
16757;SDS011;8497;51.346;12.396;2024-02-28T13:32:08;16.73;;;11.30;;
16757;SDS011;8497;51.346;12.396;2024-02-28T13:34:44;18.10;;;12.20;;
16757;SDS011;8497;51.346;12.396;2024-02-28T13:37:17;20.67;;;12.07;;
16757;SDS011;8497;51.346;12.396;2024-02-28T13:39:46;18.47;;;11.53;;
16757;SDS011;8497;51.346;12.396;2024-02-28T13:42:17;18.87;;;11.77;;
16757;SDS011;8497;51.346;12.396;2024-02-28T13:44:47;15.70;;;10.97;;
16757;SDS011;8497;51.346;12.396;2024-02-28T13:47:17;16.83;;;12.03;;
16757;SDS011;8497;51.346;12.396;2024-02-28T13:49:45;16.07;;;10.83;;
16757;SDS011;8497;51.346;12.396;2024-02-28T13:52:16;16.17;;;10.83;;
16757;SDS011;8497;51.346;12.396;2024-02-28T13:54:45;15.03;;;10.60;;
16757;SDS011;8497;51.346;12.396;2024-02-28T13:57:13;15.60;;;10.77;;
16757;SDS011;8497;51.346;12.396;2024-02-28T13:59:42;15.40;;;9.87;;
16757;SDS011;8497;51.346;12.396;2024-02-28T14:02:19;17.57;;;11.33;;
16757;SDS011;8497;51.346;12.396;2024-02-28T14:04:53;15.40;;;10.17;;
16757;SDS011;8497;51.346;12.396;2024-02-28T14:07:22;16.60;;;10.03;;
16757;SDS011;8497;51.346;12.396;2024-02-28T14:09:51;14.87;;;10.13;;
16757;SDS011;8497;51.346;12.396;2024-02-28T14:12:19;12.27;;;8.97;;
16757;SDS011;8497;51.346;12.396;2024-02-28T14:14:48;12.50;;;9.17;;
16757;SDS011;8497;51.346;12.396;2024-02-28T14:17:18;13.90;;;9.53;;
16757;SDS011;8497;51.346;12.396;2024-02-28T14:19:47;12.60;;;8.60;;
16757;SDS011;8497;51.346;12.396;2024-02-28T14:22:15;14.40;;;10.17;;
16757;SDS011;8497;51.346;12.396;2024-02-28T14:24:44;14.33;;;9.33;;
16757;SDS011;8497;51.346;12.396;2024-02-28T14:27:13;14.00;;;8.33;;
16757;SDS011;8497;51.346;12.396;2024-02-28T14:29:41;14.00;;;8.90;;
16757;SDS011;8497;51.346;12.396;2024-02-28T14:32:10;14.00;;;8.67;;
16757;SDS011;8497;51.346;12.396;2024-02-28T14:34:40;12.87;;;8.87;;
16757;SDS011;8497;51.346;12.396;2024-02-28T14:37:09;13.23;;;9.10;;
16757;SDS011;8497;51.346;12.396;2024-02-28T14:39:38;12.77;;;8.77;;
16757;SDS011;8497;51.346;12.396;2024-02-28T14:42:07;14.83;;;9.47;;
16757;SDS011;8497;51.346;12.396;2024-02-28T14:44:37;12.53;;;8.77;;
16757;SDS011;8497;51.346;12.396;2024-02-28T14:47:06;13.23;;;8.70;;
16757;SDS011;8497;51.346;12.396;2024-02-28T14:49:38;13.57;;;8.60;;
16757;SDS011;8497;51.346;12.396;2024-02-28T14:52:15;12.60;;;9.13;;
16757;SDS011;8497;51.346;12.396;2024-02-28T14:54:48;12.20;;;8.67;;
16757;SDS011;8497;51.346;12.396;2024-02-28T14:57:33;11.80;;;7.97;;
16757;SDS011;8497;51.346;12.396;2024-02-28T15:00:22;13.43;;;9.50;;